createdAt,value
2018-12-31T00:00:44.147Z,8.38
2018-12-31T00:01:34.067Z,8.44
2018-12-31T00:02:34.066Z,8.46
2018-12-31T00:03:34.068Z,8.35
2018-12-31T00:04:34.042Z,8.50
2018-12-31T00:05:34.024Z,8.44
2018-12-31T00:06:34.014Z,8.44
2018-12-31T00:07:34.005Z,8.44
2018-12-31T00:08:34.015Z,8.42
2018-12-31T00:09:33.980Z,8.42
2018-12-31T00:10:33.973Z,8.42
2018-12-31T00:11:33.957Z,8.38
2018-12-31T00:12:33.954Z,8.35
2018-12-31T00:13:33.978Z,8.46
2018-12-31T00:14:33.927Z,8.42
2018-12-31T00:15:34.271Z,8.46
2018-12-31T00:16:33.905Z,8.41
2018-12-31T00:17:33.891Z,8.47
2018-12-31T00:18:33.883Z,8.39
2018-12-31T00:19:33.970Z,8.52
2018-12-31T00:20:33.861Z,8.44
2018-12-31T00:21:33.847Z,8.52
2018-12-31T00:22:33.836Z,8.49
2018-12-31T00:23:33.825Z,8.52
2018-12-31T00:24:33.842Z,8.49
2018-12-31T00:25:33.804Z,8.44
2018-12-31T00:26:33.792Z,8.44
2018-12-31T00:27:33.781Z,8.53
2018-12-31T00:28:33.771Z,8.50
2018-12-31T00:29:33.790Z,8.49
2018-12-31T00:30:33.752Z,8.47
2018-12-31T00:31:33.743Z,8.52
2018-12-31T00:32:33.743Z,8.55
2018-12-31T00:33:33.716Z,8.46
2018-12-31T00:34:33.747Z,8.52
2018-12-31T00:35:33.700Z,8.57
2018-12-31T00:36:33.683Z,8.56
2018-12-31T00:37:33.680Z,8.46
2018-12-31T00:38:33.662Z,8.50
2018-12-31T00:39:33.651Z,8.52
2018-12-31T00:40:33.663Z,8.52
2018-12-31T00:41:41.896Z,8.47
2018-12-31T00:42:33.656Z,8.55
2018-12-31T00:43:33.606Z,8.52
2018-12-31T00:44:33.595Z,8.60
2018-12-31T00:45:33.605Z,8.50
2018-12-31T00:46:33.573Z,8.46
2018-12-31T00:47:33.562Z,8.55
2018-12-31T00:48:33.553Z,8.56
2018-12-31T00:49:33.542Z,8.57
2018-12-31T00:50:33.551Z,8.60
2018-12-31T00:51:33.517Z,8.55
2018-12-31T00:52:33.507Z,8.55
2018-12-31T00:53:33.496Z,8.60
2018-12-31T00:54:33.485Z,8.62
2018-12-31T00:55:34.959Z,8.63
2018-12-31T00:56:33.463Z,8.62
2018-12-31T00:57:33.480Z,8.62
2018-12-31T00:58:33.442Z,8.67
2018-12-31T00:59:33.429Z,8.56
2018-12-31T01:00:33.442Z,8.60
2018-12-31T01:01:33.408Z,8.63
2018-12-31T01:02:33.396Z,8.60
2018-12-31T01:03:33.388Z,8.63
2018-12-31T01:04:33.375Z,8.68
2018-12-31T01:05:33.399Z,8.68
2018-12-31T01:06:33.355Z,8.67
2018-12-31T01:07:33.343Z,8.68
2018-12-31T01:08:33.329Z,8.65
2018-12-31T01:09:33.319Z,8.67
2018-12-31T01:10:33.317Z,8.63
2018-12-31T01:11:33.332Z,8.63
2018-12-31T01:12:33.286Z,8.59
2018-12-31T01:13:33.279Z,8.59
2018-12-31T01:14:33.265Z,8.62
2018-12-31T01:15:33.256Z,8.65
2018-12-31T01:16:33.277Z,8.63
2018-12-31T01:17:33.231Z,8.62
2018-12-31T01:18:33.220Z,8.62
2018-12-31T01:19:33.210Z,8.68
2018-12-31T01:20:33.217Z,8.67
2018-12-31T01:21:33.211Z,8.70
2018-12-31T01:22:33.207Z,8.59
2018-12-31T01:23:33.166Z,8.72
2018-12-31T01:24:33.158Z,8.62
2018-12-31T01:25:33.144Z,8.74
2018-12-31T01:26:33.220Z,8.72
2018-12-31T01:27:33.152Z,8.60
2018-12-31T01:28:33.110Z,8.71
2018-12-31T01:29:33.100Z,8.72
2018-12-31T01:30:33.090Z,8.63
2018-12-31T01:31:33.114Z,8.65
2018-12-31T01:32:33.075Z,8.74
2018-12-31T01:33:33.055Z,8.65
2018-12-31T01:34:33.045Z,8.62
2018-12-31T01:35:33.034Z,8.59
2018-12-31T01:36:33.022Z,8.70
2018-12-31T01:37:33.035Z,8.63
2018-12-31T01:38:33.003Z,8.60
2018-12-31T01:39:32.994Z,8.63
2018-12-31T01:40:32.978Z,8.68
2018-12-31T01:41:32.973Z,8.71
2018-12-31T01:42:32.979Z,8.70
2018-12-31T01:43:32.949Z,8.71
2018-12-31T01:44:32.944Z,8.74
2018-12-31T01:45:32.924Z,8.60
2018-12-31T01:46:32.913Z,8.68
2018-12-31T01:47:32.925Z,8.67
2018-12-31T01:48:32.892Z,8.62
2018-12-31T01:49:32.880Z,8.74
2018-12-31T01:50:32.868Z,8.68
2018-12-31T01:51:32.858Z,8.65
2018-12-31T01:52:32.904Z,8.67
2018-12-31T01:53:32.835Z,8.72
2018-12-31T01:54:32.828Z,8.72
2018-12-31T01:55:32.817Z,8.75
2018-12-31T01:56:32.817Z,8.78
2018-12-31T01:57:32.792Z,8.80
2018-12-31T01:58:32.803Z,8.71
2018-12-31T01:59:32.769Z,8.85
2018-12-31T02:00:32.766Z,8.83
2018-12-31T02:01:32.757Z,8.74
2018-12-31T02:02:32.737Z,8.72
2018-12-31T02:03:32.747Z,8.72
2018-12-31T02:04:32.805Z,8.71
2018-12-31T02:05:32.728Z,8.70
2018-12-31T02:06:32.693Z,8.63
2018-12-31T02:07:32.724Z,8.72
2018-12-31T02:08:32.696Z,8.74
2018-12-31T02:09:32.728Z,8.68
2018-12-31T02:10:32.685Z,8.68
2018-12-31T02:11:32.636Z,8.70
2018-12-31T02:12:32.625Z,8.68
2018-12-31T02:13:32.640Z,8.71
2018-12-31T02:14:32.605Z,8.85
2018-12-31T02:15:32.593Z,8.71
2018-12-31T02:16:32.583Z,8.72
2018-12-31T02:17:32.574Z,8.70
2018-12-31T02:18:32.586Z,8.67
2018-12-31T02:19:32.553Z,8.70
2018-12-31T02:20:32.545Z,8.85
2018-12-31T02:21:32.531Z,8.75
2018-12-31T02:22:32.519Z,8.71
2018-12-31T02:23:32.530Z,8.74
2018-12-31T02:24:32.496Z,8.74
2018-12-31T02:25:32.483Z,8.85
2018-12-31T02:26:32.485Z,8.77
2018-12-31T02:27:32.462Z,8.85
2018-12-31T02:28:32.483Z,8.75
2018-12-31T02:29:32.443Z,8.75
2018-12-31T02:30:32.433Z,8.81
2018-12-31T02:31:32.417Z,8.86
2018-12-31T02:32:32.417Z,8.75
2018-12-31T02:33:32.401Z,8.81
2018-12-31T02:34:32.410Z,8.81
2018-12-31T02:35:32.374Z,8.77
2018-12-31T02:36:32.363Z,8.74
2018-12-31T02:37:32.353Z,8.77
2018-12-31T02:38:32.344Z,8.75
2018-12-31T02:39:32.355Z,8.78
2018-12-31T02:40:32.320Z,8.85
2018-12-31T02:41:32.309Z,8.81
2018-12-31T02:42:32.297Z,8.81
2018-12-31T02:43:32.292Z,8.78
2018-12-31T02:44:32.301Z,8.80
2018-12-31T02:45:32.266Z,8.72
2018-12-31T02:46:32.256Z,8.75
2018-12-31T02:47:32.243Z,8.78
2018-12-31T02:48:32.232Z,8.80
2018-12-31T02:49:32.259Z,8.83
2018-12-31T02:50:32.211Z,8.83
2018-12-31T02:51:32.200Z,8.86
2018-12-31T02:52:32.187Z,8.77
2018-12-31T02:53:32.177Z,8.80
2018-12-31T02:54:32.165Z,8.80
2018-12-31T02:55:32.183Z,8.95
2018-12-31T02:56:32.145Z,8.78
2018-12-31T02:57:32.132Z,8.80
2018-12-31T02:58:32.121Z,8.80
2018-12-31T02:59:32.127Z,8.83
2018-12-31T03:00:32.128Z,8.78
2018-12-31T03:01:32.091Z,8.80
2018-12-31T03:02:32.077Z,8.78
2018-12-31T03:03:32.067Z,8.78
2018-12-31T03:04:32.058Z,8.78
2018-12-31T03:05:32.074Z,8.86
2018-12-31T03:06:32.037Z,8.78
2018-12-31T03:07:32.028Z,8.86
2018-12-31T03:08:32.012Z,8.88
2018-12-31T03:09:32.000Z,8.77
2018-12-31T03:10:32.016Z,8.77
2018-12-31T03:11:31.978Z,8.81
2018-12-31T03:12:31.971Z,8.78
2018-12-31T03:13:31.956Z,8.80
2018-12-31T03:14:31.950Z,8.81
2018-12-31T03:15:31.984Z,8.86
2018-12-31T03:16:31.927Z,8.93
2018-12-31T03:17:31.924Z,8.83
2018-12-31T03:18:31.903Z,8.93
2018-12-31T03:19:31.893Z,8.85
2018-12-31T03:20:31.909Z,8.85
2018-12-31T03:21:31.870Z,8.86
2018-12-31T03:22:31.865Z,8.96
2018-12-31T03:23:31.880Z,8.86
2018-12-31T03:24:31.837Z,8.81
2018-12-31T03:25:31.853Z,8.86
2018-12-31T03:26:31.814Z,8.99
2018-12-31T03:27:31.806Z,8.86
2018-12-31T03:28:31.880Z,8.88
2018-12-31T03:29:31.788Z,8.86
2018-12-31T03:30:31.797Z,8.86
2018-12-31T03:31:31.795Z,8.85
2018-12-31T03:32:31.752Z,8.81
2018-12-31T03:33:31.738Z,8.88
2018-12-31T03:34:31.738Z,8.81
2018-12-31T03:35:31.777Z,8.88
2018-12-31T03:36:31.711Z,8.80
2018-12-31T03:37:31.694Z,8.80
2018-12-31T03:38:31.682Z,8.88
2018-12-31T03:39:31.685Z,8.80
2018-12-31T03:40:31.664Z,8.88
2018-12-31T03:41:31.737Z,9.01
2018-12-31T03:42:31.641Z,8.81
2018-12-31T03:43:31.640Z,8.90
2018-12-31T03:44:31.619Z,8.90
2018-12-31T03:45:31.606Z,8.81
2018-12-31T03:46:31.620Z,8.86
2018-12-31T03:47:31.587Z,8.85
2018-12-31T03:48:31.574Z,8.83
2018-12-31T03:49:31.563Z,8.88
2018-12-31T03:50:31.582Z,8.86
2018-12-31T03:51:31.577Z,8.86
2018-12-31T03:52:31.529Z,8.89
2018-12-31T03:53:31.532Z,8.99
2018-12-31T03:54:31.512Z,8.81
2018-12-31T03:55:31.499Z,8.83
2018-12-31T03:56:31.516Z,8.83
2018-12-31T03:57:31.531Z,8.88
2018-12-31T03:58:31.465Z,8.86
2018-12-31T03:59:31.458Z,8.90
2018-12-31T04:00:31.444Z,8.77
2018-12-31T04:01:31.457Z,8.81
2018-12-31T04:02:31.424Z,8.81
2018-12-31T04:03:31.420Z,8.81
2018-12-31T04:04:31.406Z,8.95
2018-12-31T04:05:31.389Z,8.85
2018-12-31T04:06:31.403Z,8.83
2018-12-31T04:07:31.364Z,8.80
2018-12-31T04:08:31.354Z,8.81
2018-12-31T04:09:31.343Z,8.88
2018-12-31T04:10:31.336Z,8.83
2018-12-31T04:11:31.345Z,8.80
2018-12-31T04:12:31.316Z,8.86
2018-12-31T04:13:31.306Z,8.83
2018-12-31T04:14:31.292Z,8.80
2018-12-31T04:15:31.277Z,8.92
2018-12-31T04:16:31.266Z,8.95
2018-12-31T04:17:31.283Z,8.86
2018-12-31T04:18:31.246Z,8.98
2018-12-31T04:19:31.233Z,8.89
2018-12-31T04:20:31.223Z,8.86
2018-12-31T04:21:31.217Z,8.95
2018-12-31T04:22:31.243Z,8.95
2018-12-31T04:23:31.199Z,8.93
2018-12-31T04:24:31.180Z,8.98
2018-12-31T04:25:31.168Z,8.89
2018-12-31T04:26:31.158Z,8.83
2018-12-31T04:27:31.172Z,8.83
2018-12-31T04:28:31.138Z,8.83
2018-12-31T04:29:31.123Z,8.85
2018-12-31T04:30:31.114Z,8.80
2018-12-31T04:31:31.104Z,8.93
2018-12-31T04:32:31.113Z,8.99
2018-12-31T04:33:31.094Z,8.93
2018-12-31T04:34:31.084Z,8.95
2018-12-31T04:35:31.060Z,9.01
2018-12-31T04:36:31.046Z,8.89
2018-12-31T04:37:31.062Z,8.93
2018-12-31T04:38:31.024Z,9.01
2018-12-31T04:39:31.014Z,8.95
2018-12-31T04:40:31.005Z,8.98
2018-12-31T04:41:31.001Z,8.90
2018-12-31T04:42:31.007Z,8.96
2018-12-31T04:43:30.972Z,8.95
2018-12-31T04:44:30.960Z,8.95
2018-12-31T04:45:30.948Z,8.93
2018-12-31T04:46:30.940Z,8.99
2018-12-31T04:47:30.957Z,8.86
2018-12-31T04:48:30.916Z,8.89
2018-12-31T04:49:30.910Z,8.93
2018-12-31T04:50:30.892Z,8.81
2018-12-31T04:51:30.881Z,8.81
2018-12-31T04:52:30.870Z,8.90
2018-12-31T04:53:30.886Z,8.90
2018-12-31T04:54:30.848Z,8.99
2018-12-31T04:55:30.837Z,8.83
2018-12-31T04:56:30.911Z,8.99
2018-12-31T04:57:30.815Z,8.83
2018-12-31T04:58:30.829Z,8.92
2018-12-31T04:59:30.793Z,8.80
2018-12-31T05:00:30.781Z,8.88
2018-12-31T05:01:30.774Z,8.86
2018-12-31T05:02:30.760Z,8.86
2018-12-31T05:03:30.775Z,8.92
2018-12-31T05:04:30.738Z,8.90
2018-12-31T05:05:30.726Z,8.83
2018-12-31T05:06:30.716Z,8.86
2018-12-31T05:07:30.704Z,8.83
2018-12-31T05:08:30.717Z,8.85
2018-12-31T05:09:30.684Z,8.90
2018-12-31T05:10:30.675Z,8.85
2018-12-31T05:11:30.663Z,8.88
2018-12-31T05:12:30.651Z,8.81
2018-12-31T05:13:30.680Z,8.81
2018-12-31T05:14:30.629Z,8.85
2018-12-31T05:15:30.620Z,8.83
2018-12-31T05:16:30.611Z,8.85
2018-12-31T05:17:30.602Z,8.86
2018-12-31T05:18:30.584Z,8.81
2018-12-31T05:19:30.599Z,8.96
2018-12-31T05:20:30.564Z,8.80
2018-12-31T05:21:30.552Z,8.92
2018-12-31T05:22:30.540Z,8.95
2018-12-31T05:23:30.533Z,8.89
2018-12-31T05:24:30.545Z,8.95
2018-12-31T05:25:30.508Z,8.92
2018-12-31T05:26:30.497Z,8.93
2018-12-31T05:27:30.486Z,8.89
2018-12-31T05:28:30.474Z,8.92
2018-12-31T05:29:30.486Z,8.90
2018-12-31T05:30:39.818Z,8.90
2018-12-31T05:31:30.517Z,8.88
2018-12-31T05:32:30.430Z,8.88
2018-12-31T05:33:30.421Z,8.90
2018-12-31T05:34:30.433Z,8.93
2018-12-31T05:35:30.397Z,8.98
2018-12-31T05:36:30.396Z,8.85
2018-12-31T05:37:30.376Z,8.89
2018-12-31T05:38:30.372Z,8.86
2018-12-31T05:39:30.377Z,8.86
2018-12-31T05:40:30.343Z,8.88
2018-12-31T05:41:30.334Z,8.88
2018-12-31T05:42:30.320Z,8.92
2018-12-31T05:43:30.316Z,8.81
2018-12-31T05:44:30.327Z,8.88
2018-12-31T05:45:30.288Z,8.83
2018-12-31T05:46:30.285Z,8.85
2018-12-31T05:47:30.276Z,8.83
2018-12-31T05:48:30.255Z,8.83
2018-12-31T05:49:30.276Z,8.86
2018-12-31T05:50:30.235Z,8.86
2018-12-31T05:51:30.225Z,8.89
2018-12-31T05:52:30.221Z,8.88
2018-12-31T05:53:30.202Z,8.93
2018-12-31T05:54:30.212Z,8.90
2018-12-31T05:55:30.177Z,8.92
2018-12-31T05:56:30.172Z,8.93
2018-12-31T05:57:30.157Z,8.95
2018-12-31T05:58:30.144Z,8.93
2018-12-31T05:59:30.161Z,8.88
2018-12-31T06:00:30.122Z,8.92
2018-12-31T06:01:30.114Z,8.95
2018-12-31T06:02:30.100Z,8.92
2018-12-31T06:03:30.091Z,8.95
2018-12-31T06:04:30.211Z,8.88
2018-12-31T06:05:30.068Z,8.83
2018-12-31T06:06:30.058Z,8.90
2018-12-31T06:07:30.048Z,8.93
2018-12-31T06:08:30.038Z,8.90
2018-12-31T06:09:30.034Z,8.86
2018-12-31T06:10:30.054Z,8.80
2018-12-31T06:11:30.000Z,8.86
2018-12-31T06:12:29.991Z,8.95
2018-12-31T06:13:29.980Z,8.86
2018-12-31T06:14:29.968Z,8.88
2018-12-31T06:15:29.981Z,8.80
2018-12-31T06:16:29.946Z,8.96
2018-12-31T06:17:29.938Z,8.89
2018-12-31T06:18:29.927Z,8.89
2018-12-31T06:19:29.914Z,8.81
2018-12-31T06:20:29.927Z,8.93
2018-12-31T06:21:29.891Z,8.92
2018-12-31T06:22:29.887Z,8.92
2018-12-31T06:23:29.870Z,8.92
2018-12-31T06:24:29.867Z,8.92
2018-12-31T06:25:29.889Z,8.86
2018-12-31T06:26:29.847Z,8.92
2018-12-31T06:27:29.829Z,8.86
2018-12-31T06:28:29.815Z,8.89
2018-12-31T06:29:29.804Z,8.93
2018-12-31T06:30:29.828Z,8.92
2018-12-31T06:31:29.782Z,8.98
2018-12-31T06:32:29.770Z,9.01
2018-12-31T06:33:29.761Z,8.95
2018-12-31T06:35:25.056Z,8.92
2018-12-31T06:36:25.069Z,9.01
2018-12-31T06:37:25.031Z,8.89
2018-12-31T06:38:25.024Z,8.99
2018-12-31T06:39:25.006Z,8.96
2018-12-31T06:40:24.997Z,8.89
2018-12-31T06:41:25.013Z,8.98
2018-12-31T06:42:24.983Z,8.86
2018-12-31T06:43:24.965Z,9.03
2018-12-31T06:44:24.965Z,8.88
2018-12-31T06:45:24.940Z,9.03
2018-12-31T06:46:24.955Z,9.03
2018-12-31T06:47:24.928Z,9.04
2018-12-31T06:48:24.908Z,9.01
2018-12-31T06:49:24.896Z,8.98
2018-12-31T06:50:24.883Z,9.01
2018-12-31T06:51:24.973Z,8.99
2018-12-31T06:52:24.864Z,8.98
2018-12-31T06:53:24.852Z,8.90
2018-12-31T06:54:24.845Z,8.99
2018-12-31T06:55:24.830Z,8.90
2018-12-31T06:56:24.853Z,9.03
2018-12-31T06:57:24.807Z,8.98
2018-12-31T06:58:25.498Z,9.01
2018-12-31T06:59:24.794Z,8.96
2018-12-31T07:00:24.774Z,9.08
2018-12-31T07:01:24.764Z,9.06
2018-12-31T07:02:24.773Z,9.08
2018-12-31T07:03:24.741Z,8.99
2018-12-31T07:04:24.739Z,9.06
2018-12-31T07:05:24.721Z,9.09
2018-12-31T07:06:24.714Z,9.01
2018-12-31T07:07:24.719Z,9.09
2018-12-31T07:08:24.687Z,9.04
2018-12-31T07:09:24.673Z,9.09
2018-12-31T07:10:24.661Z,9.12
2018-12-31T07:11:24.659Z,9.14
2018-12-31T07:12:24.667Z,9.11
2018-12-31T07:13:24.629Z,9.04
2018-12-31T07:14:24.616Z,9.14
2018-12-31T07:15:24.608Z,9.12
2018-12-31T07:16:24.598Z,9.08
2018-12-31T07:17:24.605Z,9.03
2018-12-31T07:18:24.573Z,9.08
2018-12-31T07:19:24.564Z,9.09
2018-12-31T07:20:24.566Z,9.11
2018-12-31T07:21:24.544Z,9.06
2018-12-31T07:22:24.551Z,9.03
2018-12-31T07:23:24.520Z,9.08
2018-12-31T07:24:24.506Z,9.11
2018-12-31T07:25:24.498Z,8.99
2018-12-31T07:26:24.483Z,9.03
2018-12-31T07:27:24.769Z,9.03
2018-12-31T07:28:24.464Z,9.04
2018-12-31T07:29:24.457Z,9.11
2018-12-31T07:30:24.440Z,9.04
2018-12-31T07:31:24.429Z,9.04
2018-12-31T07:32:24.429Z,9.08
2018-12-31T07:33:24.428Z,8.99
2018-12-31T07:34:24.397Z,9.04
2018-12-31T07:35:24.385Z,9.06
2018-12-31T07:36:24.381Z,9.03
2018-12-31T07:37:24.364Z,9.11
2018-12-31T07:38:24.372Z,8.99
2018-12-31T07:39:24.339Z,9.08
2018-12-31T07:40:24.327Z,9.01
2018-12-31T07:41:24.317Z,9.11
2018-12-31T07:42:24.305Z,9.03
2018-12-31T07:43:24.318Z,9.11
2018-12-31T07:44:24.285Z,9.06
2018-12-31T07:45:24.272Z,9.03
2018-12-31T07:46:24.262Z,9.09
2018-12-31T07:47:24.251Z,9.01
2018-12-31T07:48:24.260Z,9.11
2018-12-31T07:49:24.230Z,9.11
2018-12-31T07:50:24.217Z,9.09
2018-12-31T07:51:24.208Z,9.14
2018-12-31T07:52:24.193Z,9.04
2018-12-31T07:53:24.205Z,9.03
2018-12-31T07:54:24.176Z,9.04
2018-12-31T07:55:24.164Z,9.15
2018-12-31T07:56:24.148Z,9.09
2018-12-31T07:57:24.145Z,9.18
2018-12-31T07:58:24.150Z,9.04
2018-12-31T07:59:24.115Z,9.06
2018-12-31T08:00:24.106Z,9.06
2018-12-31T08:01:24.094Z,9.08
2018-12-31T08:02:24.117Z,9.09
2018-12-31T08:03:24.095Z,9.04
2018-12-31T08:04:24.061Z,9.06
2018-12-31T08:05:24.048Z,9.09
2018-12-31T08:06:24.042Z,9.15
2018-12-31T08:07:24.026Z,9.09
2018-12-31T08:08:24.043Z,9.11
2018-12-31T08:09:24.005Z,9.09
2018-12-31T08:10:23.994Z,9.19
2018-12-31T08:11:23.982Z,9.14
2018-12-31T08:12:32.386Z,9.24
2018-12-31T08:13:23.986Z,9.16
2018-12-31T08:14:24.217Z,9.16
2018-12-31T08:15:32.799Z,9.29
2018-12-31T08:16:23.929Z,9.27
2018-12-31T08:17:23.919Z,9.18
2018-12-31T08:18:23.942Z,9.18
2018-12-31T08:19:23.899Z,9.19
2018-12-31T08:20:23.884Z,9.26
2018-12-31T08:21:23.873Z,9.23
2018-12-31T08:22:23.863Z,9.27
2018-12-31T08:23:32.175Z,9.19
2018-12-31T08:24:23.860Z,9.24
2018-12-31T08:25:23.829Z,9.23
2018-12-31T08:26:23.819Z,9.24
2018-12-31T08:27:23.808Z,9.23
2018-12-31T08:28:23.794Z,9.24
2018-12-31T08:29:23.813Z,9.24
2018-12-31T08:30:23.772Z,9.22
2018-12-31T08:31:23.763Z,9.23
2018-12-31T08:32:32.037Z,9.29
2018-12-31T08:33:23.738Z,9.37
2018-12-31T08:34:23.750Z,9.29
2018-12-31T08:35:23.722Z,9.27
2018-12-31T08:36:23.713Z,9.30
2018-12-31T08:37:23.697Z,9.29
2018-12-31T08:38:32.048Z,9.27
2018-12-31T08:39:23.694Z,9.30
2018-12-31T08:40:23.662Z,9.33
2018-12-31T08:41:23.652Z,9.27
2018-12-31T08:42:23.637Z,9.30
2018-12-31T08:43:23.628Z,9.30
2018-12-31T08:44:23.638Z,9.33
2018-12-31T08:45:23.604Z,9.36
2018-12-31T08:46:23.595Z,9.32
2018-12-31T08:47:23.584Z,9.36
2018-12-31T08:48:23.574Z,9.47
2018-12-31T08:49:32.837Z,9.30
2018-12-31T08:50:23.551Z,9.41
2018-12-31T08:51:31.925Z,9.33
2018-12-31T08:52:23.526Z,9.47
2018-12-31T08:53:23.518Z,9.47
2018-12-31T08:54:23.542Z,9.37
2018-12-31T08:55:23.493Z,9.47
2018-12-31T08:56:23.482Z,9.40
2018-12-31T08:57:23.471Z,9.41
2018-12-31T08:58:23.463Z,9.37
2018-12-31T08:59:23.450Z,9.44
2018-12-31T09:00:23.550Z,9.44
2018-12-31T09:01:23.426Z,9.30
2018-12-31T09:02:23.415Z,9.32
2018-12-31T09:03:23.425Z,9.44
2018-12-31T09:04:23.395Z,9.44
2018-12-31T09:05:23.405Z,9.42
2018-12-31T09:06:23.387Z,9.44
2018-12-31T09:07:23.360Z,9.45
2018-12-31T09:08:23.372Z,9.42
2018-12-31T09:09:23.337Z,9.33
2018-12-31T09:10:23.351Z,9.44
2018-12-31T09:11:31.667Z,9.47
2018-12-31T09:12:23.304Z,9.41
2018-12-31T09:13:23.292Z,9.44
2018-12-31T09:14:23.284Z,9.47
2018-12-31T09:15:23.295Z,9.52
2018-12-31T09:16:31.631Z,9.52
2018-12-31T09:17:23.250Z,9.55
2018-12-31T09:18:23.236Z,9.57
2018-12-31T09:19:23.226Z,9.57
2018-12-31T09:20:23.324Z,9.57
2018-12-31T09:21:23.276Z,9.59
2018-12-31T09:22:23.208Z,9.62
2018-12-31T09:23:23.181Z,9.55
2018-12-31T09:24:23.170Z,9.51
2018-12-31T09:25:23.185Z,9.52
2018-12-31T09:26:23.149Z,9.52
2018-12-31T09:27:23.139Z,9.54
2018-12-31T09:28:23.125Z,9.57
2018-12-31T09:29:23.114Z,9.57
2018-12-31T09:30:23.125Z,9.54
2018-12-31T09:31:23.095Z,9.63
2018-12-31T09:32:23.079Z,9.60
2018-12-31T09:33:23.071Z,9.55
2018-12-31T09:34:23.067Z,9.60
2018-12-31T09:35:32.471Z,9.63
2018-12-31T09:36:23.044Z,9.51
2018-12-31T09:37:23.057Z,9.60
2018-12-31T09:38:31.258Z,9.55
2018-12-31T09:39:23.028Z,9.55
2018-12-31T09:40:23.009Z,9.69
2018-12-31T09:41:23.022Z,9.62
2018-12-31T09:42:22.976Z,9.60
2018-12-31T09:43:22.966Z,9.66
2018-12-31T09:44:22.956Z,9.57
2018-12-31T09:45:22.944Z,9.55
2018-12-31T09:46:22.956Z,9.55
2018-12-31T09:47:22.914Z,9.65
2018-12-31T09:48:22.902Z,9.52
2018-12-31T09:49:22.892Z,9.57
2018-12-31T09:50:31.697Z,9.65
2018-12-31T09:51:22.916Z,9.63
2018-12-31T09:52:22.858Z,9.63
2018-12-31T09:53:22.852Z,9.66
2018-12-31T09:54:22.840Z,9.67
2018-12-31T09:55:22.834Z,9.69
2018-12-31T09:56:22.837Z,9.75
2018-12-31T09:57:22.805Z,9.72
2018-12-31T09:58:22.799Z,9.70
2018-12-31T09:59:22.781Z,9.75
2018-12-31T10:00:22.768Z,9.75
2018-12-31T10:01:22.789Z,9.77
2018-12-31T10:02:22.746Z,9.65
2018-12-31T10:03:22.918Z,9.70
2018-12-31T10:04:22.724Z,9.72
2018-12-31T10:05:31.182Z,9.75
2018-12-31T10:06:22.750Z,9.78
2018-12-31T10:07:22.716Z,9.77
2018-12-31T10:08:22.757Z,9.72
2018-12-31T10:09:22.668Z,9.83
2018-12-31T10:10:22.659Z,9.72
2018-12-31T10:11:22.647Z,9.83
2018-12-31T10:12:22.658Z,9.81
2018-12-31T10:13:22.625Z,9.84
2018-12-31T10:14:22.615Z,9.83
2018-12-31T10:15:22.601Z,9.88
2018-12-31T10:16:22.680Z,9.90
2018-12-31T10:17:22.611Z,9.90
2018-12-31T10:18:22.569Z,9.88
2018-12-31T10:19:22.556Z,9.84
2018-12-31T10:20:22.546Z,9.80
2018-12-31T10:21:22.539Z,9.90
2018-12-31T10:22:22.547Z,9.84
2018-12-31T10:23:22.626Z,9.80
2018-12-31T10:24:22.543Z,9.83
2018-12-31T10:25:22.494Z,9.81
2018-12-31T10:26:22.480Z,9.70
2018-12-31T10:27:22.492Z,9.75
2018-12-31T10:28:22.461Z,9.80
2018-12-31T10:29:22.448Z,9.73
2018-12-31T10:30:22.437Z,9.80
2018-12-31T10:31:22.423Z,9.80
2018-12-31T10:32:22.439Z,9.75
2018-12-31T10:33:22.405Z,9.73
2018-12-31T10:34:22.393Z,9.72
2018-12-31T10:35:22.382Z,9.77
2018-12-31T10:36:22.373Z,9.80
2018-12-31T10:37:22.386Z,9.78
2018-12-31T10:38:22.370Z,9.75
2018-12-31T10:39:22.406Z,9.77
2018-12-31T10:40:22.342Z,9.78
2018-12-31T10:41:22.628Z,9.77
2018-12-31T10:42:22.356Z,9.83
2018-12-31T10:44:46.752Z,9.83
2018-12-31T10:45:46.737Z,9.87
2018-12-31T10:46:46.916Z,9.81
2018-12-31T10:47:46.736Z,9.81
2018-12-31T10:48:46.709Z,9.81
2018-12-31T10:49:46.696Z,9.84
2018-12-31T10:50:46.685Z,9.81
2018-12-31T10:51:46.674Z,9.85
2018-12-31T10:52:46.685Z,9.77
2018-12-31T10:53:46.650Z,9.77
2018-12-31T10:54:55.908Z,9.78
2018-12-31T10:55:46.626Z,9.78
2018-12-31T10:56:46.632Z,9.75
2018-12-31T10:57:46.638Z,9.78
2018-12-31T10:58:46.600Z,9.78
2018-12-31T10:59:46.580Z,9.83
2018-12-31T11:00:46.569Z,9.81
2018-12-31T11:01:46.617Z,9.84
2018-12-31T11:02:46.596Z,9.87
2018-12-31T11:03:59.647Z,9.88
2018-12-31T11:04:46.525Z,9.91
2018-12-31T11:05:46.519Z,9.93
2018-12-31T11:06:46.510Z,9.91
2018-12-31T11:07:46.493Z,9.96
2018-12-31T11:08:46.508Z,9.90
2018-12-31T11:09:46.469Z,9.94
2018-12-31T11:10:46.461Z,10.06
2018-12-31T11:11:46.493Z,9.94
2018-12-31T11:12:56.002Z,9.96
2018-12-31T11:13:46.450Z,9.99
2018-12-31T11:14:46.428Z,10.01
2018-12-31T11:15:46.410Z,9.99
2018-12-31T11:16:55.224Z,10.02
2018-12-31T11:17:46.391Z,10.05
2018-12-31T11:18:46.422Z,9.98
2018-12-31T11:19:46.357Z,10.03
2018-12-31T11:20:46.349Z,9.91
2018-12-31T11:21:46.336Z,9.85
2018-12-31T11:22:46.324Z,9.98
2018-12-31T11:23:46.335Z,10.02
2018-12-31T11:24:46.301Z,9.93
2018-12-31T11:25:46.291Z,9.96
2018-12-31T11:26:46.280Z,9.93
2018-12-31T11:27:46.267Z,9.91
2018-12-31T11:28:46.312Z,10.02
2018-12-31T11:29:46.246Z,9.87
2018-12-31T11:30:46.234Z,9.90
2018-12-31T11:31:46.226Z,9.93
2018-12-31T11:32:56.331Z,9.88
2018-12-31T11:33:54.721Z,9.88
2018-12-31T11:34:46.189Z,9.93
2018-12-31T11:35:46.182Z,9.90
2018-12-31T11:36:46.169Z,9.91
2018-12-31T11:37:46.157Z,9.87
2018-12-31T11:38:46.149Z,9.90
2018-12-31T11:39:46.158Z,9.87
2018-12-31T11:40:46.122Z,9.96
2018-12-31T11:41:46.114Z,9.94
2018-12-31T11:42:46.302Z,9.98
2018-12-31T11:43:55.587Z,9.93
2018-12-31T11:44:46.102Z,9.94
2018-12-31T11:45:46.070Z,9.94
2018-12-31T11:46:46.058Z,9.93
2018-12-31T11:47:46.048Z,9.96
2018-12-31T11:48:46.036Z,9.87
2018-12-31T11:49:55.331Z,9.88
2018-12-31T11:50:46.011Z,9.91
2018-12-31T11:51:46.002Z,9.87
2018-12-31T11:52:46.012Z,9.98
2018-12-31T11:53:46.020Z,9.96
2018-12-31T11:54:46.038Z,9.91
2018-12-31T11:55:45.957Z,9.91
2018-12-31T11:56:45.944Z,9.88
2018-12-31T11:57:45.935Z,9.91
2018-12-31T11:58:45.922Z,9.96
2018-12-31T11:59:45.912Z,9.87
2018-12-31T12:00:54.230Z,9.88
2018-12-31T12:01:45.919Z,9.96
2018-12-31T12:02:45.884Z,10.01
2018-12-31T12:03:54.458Z,9.85
2018-12-31T12:04:45.973Z,9.93
2018-12-31T12:05:45.869Z,9.98
2018-12-31T12:06:45.837Z,9.94
2018-12-31T12:07:45.828Z,9.90
2018-12-31T12:08:45.819Z,9.96
2018-12-31T12:09:46.700Z,9.93
2018-12-31T12:10:45.812Z,9.96
2018-12-31T12:11:45.779Z,9.93
2018-12-31T12:12:45.766Z,9.91
2018-12-31T12:13:45.757Z,9.91
2018-12-31T12:14:45.752Z,9.90
2018-12-31T12:16:56.664Z,9.91
2018-12-31T12:18:06.091Z,9.90
2018-12-31T12:18:56.622Z,9.91
2018-12-31T12:19:56.603Z,9.94
2018-12-31T12:20:56.621Z,9.90
2018-12-31T12:21:56.582Z,9.91
2018-12-31T12:22:56.570Z,9.94
2018-12-31T12:23:56.559Z,9.93
2018-12-31T12:24:56.576Z,9.98
2018-12-31T12:25:56.568Z,9.85
2018-12-31T12:26:56.526Z,9.88
2018-12-31T12:27:56.518Z,9.93
2018-12-31T12:28:56.505Z,9.90
2018-12-31T12:29:56.489Z,9.91
2018-12-31T12:30:56.478Z,9.93
2018-12-31T12:32:06.101Z,9.93
2018-12-31T12:32:56.458Z,9.90
2018-12-31T12:33:56.452Z,9.99
2018-12-31T12:34:56.434Z,9.93
2018-12-31T12:36:04.832Z,9.88
2018-12-31T12:36:56.436Z,9.88
2018-12-31T12:37:56.403Z,9.93
2018-12-31T12:38:56.389Z,9.94
2018-12-31T12:39:56.382Z,9.87
2018-12-31T12:40:56.367Z,9.90
2018-12-31T12:41:56.379Z,9.85
2018-12-31T12:42:56.346Z,9.96
2018-12-31T12:43:56.333Z,9.90
2018-12-31T12:44:56.323Z,9.88
2018-12-31T12:45:56.311Z,9.87
2018-12-31T12:46:56.325Z,9.88
2018-12-31T12:47:56.345Z,9.98
2018-12-31T12:48:56.284Z,9.91
2018-12-31T12:49:56.269Z,9.91
2018-12-31T12:50:56.256Z,9.91
2018-12-31T12:51:56.269Z,9.94
2018-12-31T12:52:56.233Z,9.98
2018-12-31T12:53:56.224Z,9.94
2018-12-31T12:54:56.210Z,9.98
2018-12-31T12:55:56.205Z,9.94
2018-12-31T12:57:06.329Z,9.91
2018-12-31T12:57:56.177Z,9.94
2018-12-31T12:58:56.191Z,9.88
2018-12-31T12:59:56.157Z,9.98
2018-12-31T13:00:56.144Z,9.94
2018-12-31T13:01:56.156Z,9.94
2018-12-31T13:02:56.122Z,9.91
2018-12-31T13:03:56.110Z,9.93
2018-12-31T13:05:03.393Z,9.88
2018-12-31T13:05:57.094Z,10.01
2018-12-31T13:07:05.990Z,9.98
2018-12-31T13:07:56.068Z,9.93
2018-12-31T13:08:56.055Z,9.94
2018-12-31T13:09:56.047Z,9.94
2018-12-31T13:10:56.128Z,9.96
2018-12-31T13:11:56.057Z,9.90
2018-12-31T13:12:56.010Z,9.91
2018-12-31T13:13:55.999Z,9.94
2018-12-31T13:14:55.988Z,9.98
2018-12-31T13:15:55.988Z,9.88
2018-12-31T13:16:55.973Z,9.99
2018-12-31T13:17:56.015Z,9.98
2018-12-31T13:18:55.948Z,9.87
2018-12-31T13:19:55.932Z,9.99
2018-12-31T13:20:56.122Z,10.05
2018-12-31T13:21:55.918Z,10.05